Time;durP1;ratioP1;P1;durP2;ratioP2;P2;SDS_P1;SDS_P2;PMS_P1;PMS_P2;Temp;Humidity;BMP_temperature;BMP_pressure;BME280_temperature;BME280_humidity;BME280_pressure;Samples;Min_cycle;Max_cycle;Signal;HPM_P1;HPM_P2
2020/12/11 00:02:22;;;;;;;3.78;1.00;;;;;;;10.44;84.53;97964.00;5033530;28;20037;-87
2020/12/11 00:04:47;;;;;;;2.00;1.08;;;;;;;10.47;84.68;97963.38;5032697;28;20121;-86
2020/12/11 00:07:13;;;;;;;3.22;0.88;;;;;;;10.50;84.00;97966.25;5049820;28;20032;-85
2020/12/11 00:09:38;;;;;;;1.17;1.08;;;;;;;10.52;83.72;97965.94;5032939;28;20025;-84
2020/12/11 00:12:04;;;;;;;2.13;0.85;;;;;;;10.53;83.35;97971.00;5033079;28;20037;-83
2020/12/11 00:14:29;;;;;;;3.38;0.90;;;;;;;10.56;83.23;97975.72;5033186;28;20484;-79
2020/12/11 00:16:54;;;;;;;1.33;0.73;;;;;;;10.59;83.48;97971.66;5049231;28;20033;-82
2020/12/11 00:19:20;;;;;;;1.90;1.05;;;;;;;10.61;83.15;97974.81;5033070;28;20025;-80
2020/12/11 00:21:45;;;;;;;0.98;0.70;;;;;;;10.64;83.04;97973.41;5032794;28;20032;-81
2020/12/11 00:24:12;;;;;;;1.90;0.98;;;;;;;10.67;83.10;97973.63;5032988;28;20021;-86
2020/12/11 00:26:39;;;;;;;3.05;1.80;;;;;;;10.69;83.16;97989.34;5032683;28;20033;-90
2020/12/11 00:29:07;;;;;;;6.93;2.13;;;;;;;10.70;83.26;97986.34;5033460;28;20412;-89
2020/12/11 00:39:09;;;;;;;3.63;1.00;;;;;;;10.75;82.94;97992.69;4972155;28;20483;-93
2020/12/11 00:41:54;;;;;;;2.08;1.83;;;;;;;10.68;82.86;98001.94;5031199;28;20033;-83
2020/12/11 00:44:20;;;;;;;2.83;2.30;;;;;;;10.61;81.55;98000.75;5033031;28;20044;-80
2020/12/11 00:46:46;;;;;;;5.90;3.10;;;;;;;10.49;80.79;97999.41;5032224;28;20119;-86
2020/12/11 00:49:12;;;;;;;5.22;3.33;;;;;;;10.40;79.77;98001.22;5032360;28;20102;-88
2020/12/11 00:51:39;;;;;;;5.13;3.60;;;;;;;10.32;80.28;98008.03;5032926;28;20028;-92
2020/12/11 00:54:09;;;;;;;5.65;3.58;;;;;;;10.23;79.86;98010.59;5032623;28;20095;-91
2020/12/11 00:56:36;;;;;;;6.18;3.15;;;;;;;10.16;80.09;98001.41;5032358;28;20033;-86
2020/12/11 00:59:01;;;;;;;4.57;3.35;;;;;;;10.05;80.00;98000.84;5032290;28;20029;-82
2020/12/11 01:01:27;;;;;;;7.32;4.10;;;;;;;9.99;80.55;98004.69;5032427;28;20112;-85
2020/12/11 01:03:52;;;;;;;6.82;3.03;;;;;;;9.93;80.37;98002.09;5032499;28;20020;-81
2020/12/11 01:06:17;;;;;;;5.85;3.72;;;;;;;9.87;80.69;98007.84;5032598;28;20036;-81
2020/12/11 01:08:43;;;;;;;5.63;3.40;;;;;;;9.81;81.13;98001.81;5032441;28;20072;-80
2020/12/11 01:11:08;;;;;;;4.88;3.42;;;;;;;9.77;80.52;98006.16;5032085;28;20545;-81
2020/12/11 01:13:34;;;;;;;7.20;3.92;;;;;;;9.71;80.45;97994.78;5032536;28;20036;-81
2020/12/11 01:15:59;;;;;;;4.88;3.30;;;;;;;9.66;80.55;97988.78;5032331;28;20412;-81
2020/12/11 01:18:25;;;;;;;5.10;3.33;;;;;;;9.59;79.70;97991.81;5032537;28;20386;-80
2020/12/11 01:33:49;;;;;;;4.18;1.90;;;;;;;9.15;79.41;97972.56;5054803;28;20438;-82
2020/12/11 01:36:14;;;;;;;2.28;1.83;;;;;;;9.12;78.74;97984.59;5032661;28;20447;-82
2020/12/11 04:25:04;;;;;;;2.40;1.60;;;;;;;7.13;86.60;98010.69;5098816;27;867016;-85
2020/12/11 04:27:29;;;;;;;3.97;1.60;;;;;;;7.20;86.02;98012.00;5127295;28;20039;-86
2020/12/11 04:29:54;;;;;;;3.78;2.50;;;;;;;7.34;85.20;98014.00;5127854;28;20092;-87
2020/12/11 04:32:20;;;;;;;7.43;2.28;;;;;;;7.39;84.99;98015.81;5127680;28;20522;-80
2020/12/11 04:34:45;;;;;;;5.10;1.80;;;;;;;7.51;84.16;98026.88;5127516;28;20024;-81
2020/12/11 04:37:15;;;;;;;3.72;2.05;;;;;;;7.61;83.83;98021.44;5127653;28;20075;-80
2020/12/11 04:39:41;;;;;;;4.78;2.22;;;;;;;7.70;83.41;98029.59;5127427;28;20118;-85
2020/12/11 04:42:07;;;;;;;3.42;1.98;;;;;;;7.75;82.90;98032.25;5127559;28;20062;-80
2020/12/11 04:44:33;;;;;;;3.78;2.70;;;;;;;7.80;82.54;98031.38;5127282;28;20042;-83
2020/12/11 04:47:05;;;;;;;5.05;2.78;;;;;;;7.86;82.12;98038.25;5127470;28;20538;-80
2020/12/11 04:49:34;;;;;;;5.30;2.65;;;;;;;7.86;82.14;98035.59;5127205;28;20084;-81
2020/12/11 04:52:04;;;;;;;3.88;2.33;;;;;;;7.95;81.72;98044.53;5127421;28;20410;-79
2020/12/11 04:54:36;;;;;;;3.47;1.73;;;;;;;7.99;81.69;98050.06;5126712;28;20026;-89
2020/12/11 04:57:03;;;;;;;2.95;2.10;;;;;;;8.04;81.20;98058.00;5127343;28;20155;-84
2020/12/11 04:59:28;;;;;;;4.35;2.13;;;;;;;8.04;81.59;98059.88;5126919;28;20027;-80
2020/12/11 05:01:57;;;;;;;4.43;2.78;;;;;;;8.06;81.51;98066.50;5127169;28;20111;-78
2020/12/11 05:04:23;;;;;;;3.20;2.85;;;;;;;8.08;81.31;98072.34;5127101;28;20107;-78
2020/12/11 05:06:48;;;;;;;3.80;2.95;;;;;;;8.10;81.36;98074.72;5126907;28;20042;-78
2020/12/11 05:09:22;;;;;;;8.02;5.45;;;;;;;8.15;81.06;98085.31;5127186;28;20149;-86
2020/12/11 05:11:48;;;;;;;7.90;5.75;;;;;;;8.14;81.31;98087.19;5127022;28;20054;-83
2020/12/11 05:14:30;;;;;;;8.70;5.93;;;;;;;8.15;81.37;98090.66;5126868;28;20058;-80
2020/12/11 05:17:01;;;;;;;5.53;4.50;;;;;;;8.18;81.16;98103.41;5115814;28;20126;-82
2020/12/11 05:19:28;;;;;;;6.97;5.95;;;;;;;8.19;81.48;98107.66;5097381;28;20020;-81
2020/12/11 05:22:06;;;;;;;7.30;5.18;;;;;;;8.16;81.59;98110.88;5106343;28;20020;-81
2020/12/11 05:24:42;;;;;;;10.65;5.78;;;;;;;8.16;81.09;98119.66;5100782;28;20075;-79
2020/12/11 05:27:27;;;;;;;10.52;6.88;;;;;;;8.19;81.14;98120.97;5082216;28;20039;-77
2020/12/11 05:29:53;;;;;;;11.27;7.30;;;;;;;8.17;81.28;98117.78;5082362;28;20489;-78
2020/12/11 05:32:43;;;;;;;10.10;6.75;;;;;;;8.15;81.10;98117.28;5092443;28;20491;-80
2020/12/11 05:35:14;;;;;;;10.73;6.13;;;;;;;8.16;81.48;98132.97;5072222;28;20032;-79
2020/12/11 05:37:53;;;;;;;10.98;5.85;;;;;;;8.14;81.56;98123.69;5071831;28;20124;-77
2020/12/11 05:40:19;;;;;;;11.55;6.63;;;;;;;8.17;81.91;98136.44;5098734;28;20067;-75
2020/12/11 05:43:03;;;;;;;9.32;5.88;;;;;;;8.16;81.10;98132.19;5085929;28;20043;-75
2020/12/11 05:45:29;;;;;;;12.65;6.55;;;;;;;8.18;81.81;98140.69;5071995;28;20119;-77
2020/12/11 05:47:59;;;;;;;9.63;6.50;;;;;;;8.22;81.66;98136.38;5105792;28;20123;-77
2020/12/11 05:50:24;;;;;;;14.15;7.03;;;;;;;8.24;81.81;98149.41;5088321;28;20552;-78
2020/12/11 05:52:53;;;;;;;9.90;6.45;;;;;;;8.25;82.12;98151.81;5108042;28;20027;-78
2020/12/11 05:55:21;;;;;;;9.90;6.65;;;;;;;8.27;81.96;98156.84;5091791;28;20514;-78
2020/12/11 05:57:54;;;;;;;7.28;4.60;;;;;;;8.29;81.89;98152.81;5088737;28;20051;-77
2020/12/11 06:00:20;;;;;;;8.93;4.13;;;;;;;8.28;81.14;98156.56;5084439;28;20042;-77
2020/12/11 06:02:50;;;;;;;5.47;2.85;;;;;;;8.29;81.54;98147.50;5091404;28;20414;-78
2020/12/11 06:05:17;;;;;;;1.83;1.65;;;;;;;8.30;81.64;98161.59;5090344;28;20032;-78
2020/12/11 06:07:44;;;;;;;2.17;1.38;;;;;;;8.36;81.38;98162.34;5091993;28;20656;-78
2020/12/11 06:10:12;;;;;;;1.60;1.50;;;;;;;8.37;81.73;98167.38;5091795;28;20035;-78
2020/12/11 06:12:38;;;;;;;8.68;4.68;;;;;;;8.37;81.53;98164.72;5091414;28;20391;-78
2020/12/11 06:15:07;;;;;;;1.60;1.50;;;;;;;8.40;81.28;98158.03;5087508;28;20043;-76
2020/12/11 06:18:19;;;;;;;1.70;1.40;;;;;;;8.45;81.50;98173.97;5083099;28;20032;-83
2020/12/11 06:20:52;;;;;;;5.13;1.40;;;;;;;8.45;81.72;98171.31;5063222;28;20494;-76
2020/12/11 06:23:21;;;;;;;1.20;0.90;;;;;;;8.47;81.07;98175.31;5071090;28;20409;-76
2020/12/11 06:25:57;;;;;;;1.77;0.80;;;;;;;8.50;81.08;98181.94;5071558;28;20021;-75
2020/12/11 06:28:35;;;;;;;1.30;1.20;;;;;;;8.54;81.29;98182.19;5085807;28;20126;-76
2020/12/11 06:31:22;;;;;;;2.73;1.63;;;;;;;8.53;81.13;98186.69;5089662;28;20097;-76
2020/12/11 06:33:55;;;;;;;3.33;1.88;;;;;;;8.60;81.51;98186.38;5072279;28;20279;-80
2020/12/11 06:36:22;;;;;;;2.85;1.88;;;;;;;8.60;81.64;98191.69;5074941;28;20115;-84
2020/12/11 06:38:55;;;;;;;6.15;3.38;;;;;;;8.64;81.77;98195.38;5090645;28;20056;-79
2020/12/11 06:41:27;;;;;;;4.18;3.72;;;;;;;8.71;81.45;98195.81;5091042;28;20024;-78
2020/12/11 06:43:56;;;;;;;3.13;1.75;;;;;;;8.75;81.67;98196.06;5090949;28;20031;-75
2020/12/11 06:46:23;;;;;;;2.38;2.08;;;;;;;8.83;81.41;98191.97;5091051;28;20031;-80
2020/12/11 06:49:16;;;;;;;26.52;15.18;;;;;;;8.89;81.37;98198.84;5090042;28;20023;-80
2020/12/11 06:51:45;;;;;;;5.68;4.03;;;;;;;8.80;81.07;98178.13;5090638;28;20024;-79
2020/12/11 06:54:11;;;;;;;3.70;1.60;;;;;;;9.00;80.48;98197.63;5089410;28;20089;-80
2020/12/11 06:56:44;;;;;;;1.60;1.40;;;;;;;9.05;81.23;98197.56;5096346;28;20100;-81
2020/12/11 06:59:36;;;;;;;1.08;1.08;;;;;;;9.12;80.52;98214.00;5090726;28;20028;-79
2020/12/11 07:02:02;;;;;;;2.53;1.50;;;;;;;9.22;80.57;98217.63;5081615;28;20389;-81
2020/12/11 07:04:37;;;;;;;5.78;2.17;;;;;;;9.27;80.21;98221.00;5075542;28;20031;-82
2020/12/11 07:07:02;;;;;;;2.42;1.90;;;;;;;9.29;79.20;98216.19;5078422;28;20082;-79
2020/12/11 07:09:28;;;;;;;2.13;1.50;;;;;;;9.31;79.11;98228.44;5090306;28;20485;-78
2020/12/11 07:11:56;;;;;;;2.15;2.00;;;;;;;9.31;79.10;98225.78;5091823;28;20188;-79
2020/12/11 07:14:28;;;;;;;1.98;1.45;;;;;;;9.32;79.63;98225.47;5090341;28;20051;-78
2020/12/11 07:16:54;;;;;;;1.33;1.08;;;;;;;9.41;79.74;98228.28;5090200;28;20036;-78
2020/12/11 07:19:19;;;;;;;2.88;1.65;;;;;;;9.42;79.64;98216.53;5094812;28;20051;-78
2020/12/11 07:21:46;;;;;;;2.47;1.25;;;;;;;9.50;79.65;98215.13;5107527;28;20163;-77
2020/12/11 07:24:13;;;;;;;2.45;1.75;;;;;;;9.58;79.11;98223.25;5082924;28;20485;-77
2020/12/11 07:26:38;;;;;;;1.02;0.93;;;;;;;9.64;78.87;98220.50;5088836;28;20086;-78
2020/12/11 07:29:11;;;;;;;5.63;2.85;;;;;;;9.70;78.74;98228.16;5078732;28;20056;-77
2020/12/11 07:31:41;;;;;;;2.28;1.77;;;;;;;9.78;78.28;98232.06;5069534;28;20024;-77
2020/12/11 07:34:17;;;;;;;2.08;1.10;;;;;;;9.83;77.07;98236.53;5071116;28;20522;-77
2020/12/11 07:36:57;;;;;;;1.30;1.02;;;;;;;9.88;76.96;98236.44;5071292;28;20024;-78
2020/12/11 07:39:25;;;;;;;2.13;1.35;;;;;;;9.95;76.75;98231.53;5070176;28;20082;-78
2020/12/11 07:41:51;;;;;;;2.47;1.25;;;;;;;10.03;76.76;98241.56;5105478;28;20393;-79
2020/12/11 07:44:25;;;;;;;2.17;1.02;;;;;;;10.15;76.97;98241.06;5089413;28;20043;-80
2020/12/11 07:46:51;;;;;;;3.30;1.63;;;;;;;10.20;75.70;98230.28;5081029;28;20059;-77
2020/12/11 07:49:17;;;;;;;2.47;1.13;;;;;;;10.24;75.08;98238.50;5086881;28;20040;-79
2020/12/11 07:51:47;;;;;;;1.65;1.23;;;;;;;10.27;75.01;98229.94;5099006;28;20050;-79
2020/12/11 07:54:13;;;;;;;12.88;3.00;;;;;;;10.33;75.34;98234.09;5089427;28;20160;-79
2020/12/11 07:56:39;;;;;;;2.30;1.63;;;;;;;10.33;74.68;98239.44;5089611;28;20032;-82
2020/12/11 07:59:12;;;;;;;1.58;1.27;;;;;;;10.34;73.17;98221.50;5076361;28;20028;-81
2020/12/11 08:01:38;;;;;;;1.55;1.40;;;;;;;10.37;74.31;98232.44;5086653;28;20086;-80
2020/12/11 08:04:04;;;;;;;2.25;1.73;;;;;;;10.38;73.85;98247.38;5069684;28;20028;-79
2020/12/11 08:06:30;;;;;;;1.42;1.15;;;;;;;10.45;72.65;98244.34;5081667;28;20525;-81
2020/12/11 08:08:55;;;;;;;1.08;0.98;;;;;;;10.45;72.87;98241.69;5089641;28;20043;-80
2020/12/11 08:11:27;;;;;;;2.40;1.75;;;;;;;10.54;73.12;98231.88;5082273;28;20502;-80
2020/12/11 08:14:02;;;;;;;1.92;1.00;;;;;;;10.60;71.88;98239.81;5088454;28;20449;-78
2020/12/11 08:16:29;;;;;;;0.93;0.93;;;;;;;10.63;72.20;98234.69;5105911;28;20488;-81
2020/12/11 08:18:56;;;;;;;4.05;1.10;;;;;;;10.72;71.18;98237.44;5089319;28;20039;-76
2020/12/11 08:21:32;;;;;;;1.77;1.02;;;;;;;10.73;69.84;98234.47;5087814;28;20483;-76
2020/12/11 08:23:58;;;;;;;1.23;1.00;;;;;;;10.80;71.04;98242.13;5083353;28;20045;-77
2020/12/11 08:26:26;;;;;;;0.88;0.70;;;;;;;10.80;70.98;98235.94;5069329;28;20071;-76
2020/12/11 08:29:04;;;;;;;1.02;0.90;;;;;;;10.83;70.00;98232.69;5072915;28;20445;-75
2020/12/11 08:31:31;;;;;;;1.20;0.88;;;;;;;10.84;71.39;98236.94;5088273;28;20027;-75
2020/12/11 08:34:02;;;;;;;1.60;1.33;;;;;;;10.89;71.48;98242.22;5087845;28;20024;-75
2020/12/11 08:36:29;;;;;;;1.35;0.80;;;;;;;10.88;68.73;98236.06;5074198;28;20404;-75
2020/12/11 08:39:05;;;;;;;1.88;1.20;;;;;;;10.91;68.45;98237.34;5068220;28;20499;-74
2020/12/11 08:41:31;;;;;;;1.20;0.98;;;;;;;10.92;69.42;98238.91;5085035;28;20032;-74
2020/12/11 08:43:57;;;;;;;2.47;1.25;;;;;;;10.89;70.13;98242.22;5068783;28;20025;-75
2020/12/11 08:46:34;;;;;;;2.40;1.95;;;;;;;10.95;68.93;98243.69;5071567;28;20044;-75
2020/12/11 08:49:20;;;;;;;1.37;1.27;;;;;;;10.98;68.90;98244.97;5080311;28;20051;-76
2020/12/11 08:51:46;;;;;;;2.30;1.70;;;;;;;11.01;68.90;98239.00;5090294;28;20056;-74
2020/12/11 08:54:11;;;;;;;1.98;1.52;;;;;;;11.10;68.89;98245.25;5087153;28;20055;-75
2020/12/11 08:56:45;;;;;;;1.88;1.55;;;;;;;11.19;68.73;98248.81;5090135;28;20064;-75
2020/12/11 08:59:11;;;;;;;2.83;1.75;;;;;;;11.24;69.13;98247.91;5105619;28;20569;-76
2020/12/11 09:01:39;;;;;;;2.97;1.70;;;;;;;11.30;66.99;98248.59;5091034;28;20032;-75
2020/12/11 09:04:04;;;;;;;1.35;1.25;;;;;;;11.34;64.75;98249.59;5083030;28;20544;-84
2020/12/11 09:06:30;;;;;;;4.25;1.38;;;;;;;11.42;66.40;98258.81;5072715;28;20134;-81
2020/12/11 09:08:55;;;;;;;1.10;0.90;;;;;;;11.50;65.82;98258.09;5082496;28;20032;-80
2020/12/11 09:11:21;;;;;;;3.83;3.03;;;;;;;11.56;65.98;98248.84;5088403;28;20032;-79
2020/12/11 09:13:46;;;;;;;1.98;1.58;;;;;;;11.61;65.07;98242.56;5062526;28;20130;-80
2020/12/11 09:16:12;;;;;;;1.85;1.42;;;;;;;11.69;65.58;98253.38;5091184;28;20042;-80
2020/12/11 09:18:38;;;;;;;1.85;1.40;;;;;;;11.74;64.79;98244.41;5092446;28;20055;-81
2020/12/11 09:21:03;;;;;;;1.45;1.30;;;;;;;11.83;64.79;98244.50;5097037;28;20030;-78
2020/12/11 09:23:28;;;;;;;3.55;1.20;;;;;;;11.88;64.76;98246.25;5112202;28;20054;-78
2020/12/11 09:25:54;;;;;;;1.20;1.10;;;;;;;11.96;64.02;98249.03;5085198;28;20166;-78
2020/12/11 09:28:21;;;;;;;1.67;1.58;;;;;;;12.01;63.99;98248.91;5080140;28;20023;-77
2020/12/11 09:30:48;;;;;;;1.95;1.77;;;;;;;12.09;64.19;98244.69;5092139;28;20024;-76
2020/12/11 09:33:36;;;;;;;1.60;1.50;;;;;;;12.13;63.70;98237.66;5093774;28;20491;-76
2020/12/11 09:36:03;;;;;;;2.70;1.25;;;;;;;12.19;63.85;98232.16;5091839;28;20036;-81
2020/12/11 09:38:28;;;;;;;3.43;1.43;;;;;;;12.28;63.40;98231.09;5088235;28;20135;-80
2020/12/11 09:40:59;;;;;;;3.42;1.70;;;;;;;12.35;63.27;98230.66;5091169;28;20519;-81
2020/12/11 09:46:04;;;;;;;2.78;1.42;;;;;;;12.43;61.91;98235.28;5092598;28;20059;-84
2020/12/11 09:56:05;;;;;;;6.30;3.15;;;;;;;12.58;62.16;98233.31;5076354;28;20037;-84
2020/12/11 09:58:32;;;;;;;6.63;3.53;;;;;;;12.61;62.12;98224.66;5087886;28;20115;-82
2020/12/11 10:00:58;;;;;;;6.75;3.60;;;;;;;12.62;61.18;98221.66;5082121;28;20082;-83
2020/12/11 10:03:24;;;;;;;8.73;3.10;;;;;;;12.62;61.29;98220.84;5091019;28;20115;-81
2020/12/11 10:05:49;;;;;;;4.82;3.25;;;;;;;12.65;61.69;98217.56;5091514;28;20136;-85
2020/12/11 10:08:15;;;;;;;3.22;2.47;;;;;;;12.65;60.68;98218.34;5091556;28;20050;-83
2020/12/11 10:10:41;;;;;;;5.70;1.85;;;;;;;12.62;61.02;98216.28;5084851;28;20476;-84
2020/12/11 10:13:07;;;;;;;3.67;2.47;;;;;;;12.70;61.01;98222.00;5078638;28;20115;-83
2020/12/11 10:15:33;;;;;;;3.90;2.40;;;;;;;12.74;61.26;98215.72;5074971;28;20170;-83
2020/12/11 10:18:02;;;;;;;5.53;3.30;;;;;;;12.78;61.12;98215.84;5081323;28;20118;-80
2020/12/11 10:20:27;;;;;;;3.17;2.28;;;;;;;12.86;60.77;98212.41;5073965;28;20028;-83
2020/12/11 10:22:53;;;;;;;2.22;2.00;;;;;;;12.91;60.43;98211.47;5070809;28;20012;-83
2020/12/11 10:25:20;;;;;;;4.57;2.47;;;;;;;12.96;60.09;98217.50;5073216;28;20021;-80
2020/12/11 10:27:46;;;;;;;4.72;2.35;;;;;;;13.00;59.67;98214.19;5105801;28;20046;-81
2020/12/11 10:30:11;;;;;;;4.40;3.17;;;;;;;13.04;60.09;98215.16;5111703;28;20031;-83
2020/12/11 10:32:38;;;;;;;5.30;2.53;;;;;;;13.08;59.58;98214.19;5111602;28;20062;-83
2020/12/11 10:35:05;;;;;;;2.15;1.60;;;;;;;13.13;59.05;98214.06;5095197;28;20063;-82
2020/12/11 10:37:31;;;;;;;1.63;1.52;;;;;;;13.18;58.92;98210.44;5112146;27;20081;-81
2020/12/11 10:39:57;;;;;;;1.63;1.52;;;;;;;13.22;59.31;98214.09;5089524;28;20033;-76
2020/12/11 10:42:23;;;;;;;1.45;1.35;;;;;;;13.24;59.96;98206.50;5073961;28;20036;-83
2020/12/11 10:44:48;;;;;;;1.33;1.23;;;;;;;13.25;59.19;98210.75;5087282;28;20098;-83
2020/12/11 10:47:14;;;;;;;1.20;1.10;;;;;;;13.26;58.89;98211.56;5091132;28;20039;-79
2020/12/11 10:49:39;;;;;;;1.83;1.40;;;;;;;13.26;58.47;98212.34;5089711;28;20024;-83
2020/12/11 10:52:05;;;;;;;2.78;2.20;;;;;;;13.25;59.02;98205.38;5090894;28;20092;-82
2020/12/11 10:54:30;;;;;;;4.35;2.72;;;;;;;13.23;58.56;98196.06;5090263;28;20028;-85
2020/12/11 10:56:58;;;;;;;3.83;2.97;;;;;;;13.28;58.16;98187.84;5090851;28;20408;-87
2020/12/11 10:59:24;;;;;;;3.05;2.25;;;;;;;13.33;58.63;98193.09;5092127;28;20024;-87
2020/12/11 11:01:49;;;;;;;2.30;1.48;;;;;;;13.38;59.13;98186.81;5093459;28;20126;-85
2020/12/11 11:04:15;;;;;;;2.35;1.40;;;;;;;13.40;57.82;98188.06;5093391;28;20034;-84
2020/12/11 11:06:44;;;;;;;2.05;1.35;;;;;;;13.46;57.44;98183.31;5098310;28;20028;-89
2020/12/11 11:12:26;;;;;;;1.67;1.33;;;;;;;13.39;57.48;98169.56;5092654;28;20036;-84
2020/12/11 11:27:41;;;;;;;3.17;2.38;;;;;;;13.61;57.08;98168.63;5091619;28;20488;-85
2020/12/11 11:30:06;;;;;;;4.60;2.13;;;;;;;13.66;56.64;98175.72;5083955;28;20040;-85
2020/12/11 11:32:32;;;;;;;3.85;2.15;;;;;;;13.67;56.51;98164.69;5081100;28;20407;-85
2020/12/11 11:34:57;;;;;;;9.82;6.03;;;;;;;13.71;56.23;98175.56;5072476;28;20119;-85
2020/12/11 11:37:26;;;;;;;2.53;1.73;;;;;;;13.72;56.27;98172.56;5070501;28;20056;-85
2020/12/11 11:39:52;;;;;;;2.55;2.13;;;;;;;13.74;56.64;98162.31;5073608;28;20032;-84
2020/12/11 11:42:17;;;;;;;7.35;2.20;;;;;;;13.74;56.73;98156.13;5090041;28;20498;-84
2020/12/11 11:47:14;;;;;;;2.33;2.08;;;;;;;13.74;56.86;98140.81;5071117;28;20028;-84
2020/12/11 11:52:49;;;;;;;2.55;2.05;;;;;;;13.85;56.74;98143.91;5081278;28;20500;-83
2020/12/11 11:55:12;;;;;;;1.92;1.67;;;;;;;13.79;56.44;98141.72;5074532;28;20100;-78
2020/12/11 11:57:41;;;;;;;5.80;2.35;;;;;;;13.75;57.20;98136.97;5088861;28;20468;-79
2020/12/11 12:00:09;;;;;;;3.65;1.88;;;;;;;13.72;56.96;98145.69;5089158;28;20028;-80
2020/12/11 12:02:37;;;;;;;1.85;1.50;;;;;;;13.67;56.75;98128.94;5089475;28;20248;-80
2020/12/11 12:05:04;;;;;;;;;;;;;;;13.72;56.37;98137.63;5077164;28;20032;-79
2020/12/11 12:07:29;;;;;;;1.15;1.15;;;;;;;13.73;56.94;98136.53;5087602;28;19927;-82
2020/12/11 12:09:55;;;;;;;1.80;1.70;;;;;;;13.68;56.49;98122.47;5086436;28;20043;-79
2020/12/11 12:12:21;;;;;;;3.67;2.05;;;;;;;13.75;57.09;98130.84;5069385;28;20056;-78
2020/12/11 12:14:49;;;;;;;2.78;1.92;;;;;;;13.72;57.32;98124.19;5069009;28;20085;-78
2020/12/11 12:17:16;;;;;;;2.92;1.70;;;;;;;13.72;56.62;98128.78;5074104;28;20029;-76
2020/12/11 12:19:45;;;;;;;2.23;1.73;;;;;;;13.76;56.55;98127.03;5079526;28;20024;-79
2020/12/11 12:29:55;;;;;;;4.13;2.78;;;;;;;13.84;56.16;98128.94;5071314;28;20377;-80
2020/12/11 12:32:23;;;;;;;1.77;1.55;;;;;;;13.86;56.27;98124.00;5069225;28;20028;-81
2020/12/11 12:34:52;;;;;;;4.15;2.60;;;;;;;13.90;56.28;98134.91;5070037;28;20102;-81
2020/12/11 12:45:11;;;;;;;1.85;1.30;;;;;;;13.87;56.08;98122.91;5082225;28;20478;-78
2020/12/11 12:47:38;;;;;;;1.35;1.20;;;;;;;13.87;56.19;98120.22;5093280;28;20040;-78
2020/12/11 12:50:05;;;;;;;1.27;1.17;;;;;;;13.86;55.62;98124.00;5092645;28;20025;-77
2020/12/11 12:52:30;;;;;;;3.88;2.15;;;;;;;13.85;54.98;98127.03;5092961;28;20127;-77
2020/12/11 12:54:56;;;;;;;3.20;1.83;;;;;;;13.83;55.06;98121.97;5092656;28;20115;-78
2020/12/11 12:57:27;;;;;;;3.47;1.70;;;;;;;13.83;55.37;98121.16;5092993;28;20055;-77
2020/12/11 12:59:59;;;;;;;2.97;2.05;;;;;;;13.83;55.94;98119.28;5091545;28;20035;-78
2020/12/11 13:05:09;;;;;;;1.00;1.00;;;;;;;13.83;55.49;98124.66;5073926;28;20420;-76
2020/12/11 13:07:36;;;;;;;2.90;1.60;;;;;;;13.82;55.54;98120.38;5072688;28;20461;-76
2020/12/11 13:10:04;;;;;;;3.33;1.98;;;;;;;13.82;55.50;98128.44;5072499;28;20025;-78
2020/12/11 13:12:29;;;;;;;1.67;1.50;;;;;;;13.75;55.67;98118.16;5074231;28;20131;-78
2020/12/11 13:14:55;;;;;;;4.05;2.75;;;;;;;13.80;55.89;98127.19;5085064;28;20116;-77
2020/12/11 13:17:20;;;;;;;5.78;2.13;;;;;;;13.77;55.47;98117.88;5102894;28;20032;-79
2020/12/11 13:19:46;;;;;;;6.03;3.00;;;;;;;13.79;55.86;98123.69;5105698;28;20028;-79
2020/12/11 13:22:46;;;;;;;2.58;1.60;;;;;;;13.79;55.86;98123.69;5106140;28;20040;-79
2020/12/11 13:27:42;;;;;;;6.05;2.53;;;;;;;13.75;56.13;98126.25;5073324;28;20063;-79
2020/12/11 13:30:08;;;;;;;5.88;3.28;;;;;;;13.73;56.19;98131.16;5072057;28;20539;-79
2020/12/11 13:32:33;;;;;;;6.20;3.80;;;;;;;13.70;56.33;98122.94;5072235;28;20078;-78
2020/12/11 13:34:59;;;;;;;8.52;4.30;;;;;;;13.70;56.06;98128.31;5088726;28;20111;-79
2020/12/11 13:37:28;;;;;;;6.40;3.50;;;;;;;13.67;55.60;98128.94;5072129;28;20036;-78
2020/12/11 13:39:55;;;;;;;8.18;3.80;;;;;;;13.68;55.79;98134.00;5071813;28;20089;-78
2020/12/11 13:42:21;;;;;;;5.00;3.70;;;;;;;13.64;55.36;98121.53;5072173;28;20033;-79
2020/12/11 13:44:46;;;;;;;7.50;4.65;;;;;;;13.61;54.92;98117.59;5071954;28;20484;-78
2020/12/11 13:47:12;;;;;;;7.13;3.53;;;;;;;13.58;55.41;98119.00;5071056;28;20028;-77
2020/12/11 13:49:37;;;;;;;7.18;3.45;;;;;;;13.58;55.16;98121.69;5085755;28;20028;-76
2020/12/11 13:52:02;;;;;;;6.70;3.50;;;;;;;13.57;55.38;98120.13;5090188;28;20039;-75
2020/12/11 13:54:28;;;;;;;6.93;3.85;;;;;;;13.56;55.37;98121.22;5082863;28;20052;-76
2020/12/11 13:56:53;;;;;;;5.68;3.67;;;;;;;13.55;55.14;98125.03;5088120;28;20027;-76
2020/12/11 13:59:22;;;;;;;5.03;3.50;;;;;;;13.53;54.94;98113.78;5094736;28;20035;-77
2020/12/11 14:01:49;;;;;;;6.95;3.20;;;;;;;13.50;54.76;98127.06;5079105;28;20039;-76
2020/12/11 14:04:16;;;;;;;7.30;4.55;;;;;;;13.46;54.31;98116.16;5072583;28;20048;-76
2020/12/11 14:06:41;;;;;;;14.48;5.90;;;;;;;13.47;54.92;98122.34;5071934;28;20035;-79
2020/12/11 14:09:07;;;;;;;15.15;7.40;;;;;;;13.36;54.98;98113.78;5079158;28;20456;-76
2020/12/11 14:11:33;;;;;;;11.98;7.25;;;;;;;13.41;55.27;98114.44;5091662;28;20031;-75
2020/12/11 14:13:58;;;;;;;15.60;7.55;;;;;;;13.42;54.79;98134.03;5083056;28;20120;-75
2020/12/11 14:16:43;;;;;;;12.25;6.97;;;;;;;13.40;55.26;98136.25;5075019;28;20031;-77
2020/12/11 14:24:13;;;;;;;15.68;8.32;;;;;;;13.26;55.09;98134.47;5072422;28;20456;-74
2020/12/11 14:26:44;;;;;;;14.20;7.53;;;;;;;13.20;54.49;98141.09;5072351;28;20079;-76
2020/12/11 14:29:10;;;;;;;11.25;6.88;;;;;;;13.19;54.63;98136.84;5071036;28;20470;-77
2020/12/11 14:31:36;;;;;;;10.98;4.38;;;;;;;13.01;52.86;98122.63;5071423;28;20044;-75
2020/12/11 14:34:01;;;;;;;4.88;3.50;;;;;;;13.06;52.88;98146.63;5070996;28;20098;-77
2020/12/11 14:36:27;;;;;;;6.45;3.92;;;;;;;13.03;52.83;98141.88;5071069;28;20447;-75
2020/12/11 14:41:25;;;;;;;7.75;4.55;;;;;;;12.95;53.55;98140.78;5092572;28;20024;-77
2020/12/11 14:43:52;;;;;;;7.90;4.78;;;;;;;12.93;52.55;98152.94;5080296;28;20480;-77
2020/12/11 14:46:23;;;;;;;8.98;4.50;;;;;;;12.89;52.37;98157.31;5070803;28;20032;-79
2020/12/11 14:48:50;;;;;;;6.85;3.85;;;;;;;12.87;52.11;98163.00;5086371;28;20056;-76
2020/12/11 14:51:16;;;;;;;10.95;5.95;;;;;;;12.81;52.52;98151.63;5081981;28;20032;-79
2020/12/11 14:53:41;;;;;;;14.00;8.30;;;;;;;12.78;52.81;98154.94;5074259;28;21876;-76
2020/12/11 14:56:07;;;;;;;16.60;8.35;;;;;;;12.76;52.46;98151.78;5091163;28;20023;-78
2020/12/11 14:58:32;;;;;;;6.75;4.68;;;;;;;12.72;51.64;98136.63;5077599;28;20032;-80
2020/12/11 15:00:58;;;;;;;12.43;7.20;;;;;;;12.65;51.64;98137.88;5088271;28;20111;-80
2020/12/11 15:03:23;;;;;;;8.32;5.28;;;;;;;12.63;51.49;98141.97;5088843;28;20036;-82
2020/12/11 15:05:48;;;;;;;5.93;3.85;;;;;;;12.57;51.58;98154.75;5076270;28;20020;-78
2020/12/11 15:08:14;;;;;;;8.82;4.95;;;;;;;12.56;52.01;98150.47;5088747;28;20438;-79
2020/12/11 15:10:39;;;;;;;6.72;4.40;;;;;;;12.56;52.02;98152.34;5087360;28;20029;-83
2020/12/11 15:13:05;;;;;;;5.10;3.80;;;;;;;12.52;52.42;98146.03;5069829;28;20036;-78
2020/12/11 15:15:30;;;;;;;8.65;4.57;;;;;;;12.48;52.54;98145.88;5073110;28;20028;-76
2020/12/11 15:17:56;;;;;;;9.82;5.13;;;;;;;12.45;52.41;98146.47;5084324;28;20051;-77
2020/12/11 15:20:21;;;;;;;9.65;5.35;;;;;;;12.41;52.37;98138.25;5076345;28;20024;-77
2020/12/11 15:22:47;;;;;;;9.30;5.35;;;;;;;12.40;52.42;98142.06;5071736;28;20028;-77
2020/12/11 15:25:12;;;;;;;11.18;5.60;;;;;;;12.39;52.20;98140.47;5084912;28;20044;-77
2020/12/11 15:27:38;;;;;;;9.93;6.43;;;;;;;12.34;52.18;98132.59;5083883;28;20028;-77
2020/12/11 15:30:04;;;;;;;11.00;7.05;;;;;;;12.28;52.36;98134.59;5080834;28;20037;-77
2020/12/11 15:32:29;;;;;;;10.45;5.57;;;;;;;12.26;52.73;98136.00;5077035;28;20082;-79
2020/12/11 15:34:54;;;;;;;10.38;6.32;;;;;;;12.23;52.80;98140.09;5083784;28;20036;-78
2020/12/11 15:37:20;;;;;;;12.60;6.85;;;;;;;12.21;53.16;98142.28;5106967;28;20114;-78
2020/12/11 15:39:45;;;;;;;7.85;5.00;;;;;;;12.17;53.49;98133.31;5084099;28;20042;-77
2020/12/11 15:42:11;;;;;;;10.30;6.07;;;;;;;12.11;53.25;98127.28;5072039;28;20020;-78
2020/12/11 15:44:36;;;;;;;11.80;5.63;;;;;;;12.05;53.32;98123.16;5074369;28;20040;-77
2020/12/11 15:47:02;;;;;;;10.18;6.72;;;;;;;12.06;53.96;98124.72;5077069;28;20111;-78